Time;durP1;ratioP1;P1;durP2;ratioP2;P2;SDS_P1;SDS_P2;PMS_P1;PMS_P2;Temp;Humidity;BMP_temperature;BMP_pressure;BME280_temperature;BME280_humidity;BME280_pressure;Samples;Min_cycle;Max_cycle;Signal;HPM_P1;HPM_P2
2022/08/12 00:45:08;;;;;;;5.38;3.40;;;;;;;;;;5095188;28;20263;-44
2022/08/12 00:47:35;;;;;;;5.35;3.70;;;;;;;;;;5095116;28;20648;-46
2022/08/12 00:50:05;;;;;;;5.68;3.63;;;;;;;;;;5094581;28;20229;-47
2022/08/12 00:52:33;;;;;;;6.43;4.00;;;;;;;;;;5095447;28;20199;-44
2022/08/12 00:55:04;;;;;;;5.63;3.78;;;;;;;;;;5095124;28;20210;-44
2022/08/12 00:57:35;;;;;;;12.07;4.25;;;;;;;;;;5095184;28;20206;-45
2022/08/12 01:00:11;;;;;;;5.82;3.58;;;;;;;;;;5095121;28;20259;-45
2022/08/12 01:02:41;;;;;;;6.30;3.78;;;;;;;;;;5095559;28;20206;-43
2022/08/12 01:13:32;;;;;;;5.63;3.95;;;;;;;;;;5095159;28;20207;-44
2022/08/12 01:16:01;;;;;;;6.63;4.10;;;;;;;;;;5094987;28;20275;-44
2022/08/12 01:18:31;;;;;;;6.07;3.75;;;;;;;;;;5094751;28;20217;-45
2022/08/12 01:21:07;;;;;;;9.68;4.40;;;;;;;;;;5094781;28;20202;-46
2022/08/12 01:23:53;;;;;;;6.43;4.70;;;;;;;;;;5095083;28;20213;-46
2022/08/12 01:26:22;;;;;;;6.57;4.78;;;;;;;;;;5085490;28;20207;-45
2022/08/12 01:28:55;;;;;;;4.90;4.40;;;;;;;;;;5074706;28;20236;-45
2022/08/12 01:31:26;;;;;;;6.57;4.50;;;;;;;;;;5074945;28;20187;-44
2022/08/12 01:33:52;;;;;;;8.63;4.90;;;;;;;;;;5074407;28;20195;-46
2022/08/12 01:36:21;;;;;;;6.13;4.40;;;;;;;;;;5072402;28;20251;-48
2022/08/12 01:38:50;;;;;;;7.10;4.50;;;;;;;;;;5071505;28;20215;-45
2022/08/12 01:41:18;;;;;;;7.25;4.97;;;;;;;;;;5074844;28;20290;-45
2022/08/12 01:43:45;;;;;;;6.38;4.82;;;;;;;;;;5073487;28;20211;-46
2022/08/12 01:46:21;;;;;;;11.02;4.70;;;;;;;;;;5074501;28;20214;-45
2022/08/12 01:48:56;;;;;;;7.50;5.22;;;;;;;;;;5074623;28;20239;-47
2022/08/12 01:51:41;;;;;;;11.10;5.60;;;;;;;;;;5073854;28;20218;-45
2022/08/12 01:54:39;;;;;;;8.27;5.57;;;;;;;;;;5074219;28;20211;-45
2022/08/12 01:57:16;;;;;;;9.75;5.00;;;;;;;;;;5073662;28;20537;-45
2022/08/12 02:00:11;;;;;;;8.13;5.40;;;;;;;;;;5077700;28;20693;-45
2022/08/12 02:02:42;;;;;;;8.93;5.28;;;;;;;;;;5076963;28;20219;-45
2022/08/12 02:11:24;;;;;;;7.82;5.15;;;;;;;;;;5078173;28;20272;-45
2022/08/12 02:14:05;;;;;;;11.27;4.97;;;;;;;;;;5077542;28;20227;-45
2022/08/12 02:16:44;;;;;;;7.68;5.10;;;;;;;;;;5077559;28;20207;-46
2022/08/12 02:19:48;;;;;;;8.98;5.28;;;;;;;;;;5077607;28;20673;-45
2022/08/12 02:22:33;;;;;;;9.13;6.10;;;;;;;;;;5076943;28;20285;-46
2022/08/12 02:25:12;;;;;;;8.15;5.38;;;;;;;;;;5077978;28;20195;-45
2022/08/12 02:27:45;;;;;;;7.88;5.53;;;;;;;;;;5077555;28;20538;-46
2022/08/12 02:30:18;;;;;;;10.13;4.97;;;;;;;;;;5077464;28;20661;-44
2022/08/12 02:32:46;;;;;;;6.97;4.65;;;;;;;;;;5072155;28;20285;-46
2022/08/12 02:35:18;;;;;;;10.10;5.07;;;;;;;;;;5077628;28;20226;-45
2022/08/12 02:37:48;;;;;;;7.68;5.20;;;;;;;;;;5077497;28;20269;-47
2022/08/12 02:40:16;;;;;;;7.72;5.63;;;;;;;;;;5077359;28;20211;-44
2022/08/12 02:43:11;;;;;;;7.57;5.45;;;;;;;;;;5077417;28;20226;-44
2022/08/12 02:45:46;;;;;;;7.35;5.85;;;;;;;;;;5077064;28;20204;-44
2022/08/12 02:48:24;;;;;;;10.65;5.75;;;;;;;;;;5076018;28;20678;-46
2022/08/12 02:50:52;;;;;;;11.18;5.35;;;;;;;;;;5076344;28;20210;-45
2022/08/12 02:53:19;;;;;;;6.93;4.95;;;;;;;;;;5076134;28;20207;-44
2022/08/12 02:55:46;;;;;;;9.43;5.80;;;;;;;;;;5077030;28;20245;-45
2022/08/12 02:58:14;;;;;;;10.10;5.45;;;;;;;;;;5076113;28;20273;-44
2022/08/12 03:00:45;;;;;;;9.75;5.55;;;;;;;;;;5075856;28;20207;-44
2022/08/12 03:03:13;;;;;;;8.50;5.05;;;;;;;;;;5077066;28;20207;-48
2022/08/12 03:05:47;;;;;;;7.43;4.82;;;;;;;;;;5076503;28;20231;-45
2022/08/12 03:08:18;;;;;;;9.88;5.55;;;;;;;;;;5076179;28;20276;-44
2022/08/12 03:11:03;;;;;;;6.55;4.80;;;;;;;;;;5075746;28;20262;-46
2022/08/12 03:13:43;;;;;;;8.95;5.07;;;;;;;;;;5092035;28;20211;-46
2022/08/12 03:16:10;;;;;;;7.63;5.35;;;;;;;;;;5076471;28;20207;-46
2022/08/12 03:18:40;;;;;;;5.13;4.30;;;;;;;;;;5076620;28;20229;-45
2022/08/12 03:21:15;;;;;;;8.30;4.93;;;;;;;;;;5076614;28;20548;-45
2022/08/12 03:23:43;;;;;;;7.25;4.30;;;;;;;;;;5076692;28;20207;-44
2022/08/12 03:26:12;;;;;;;6.50;4.70;;;;;;;;;;5076323;28;20275;-44
2022/08/12 03:28:49;;;;;;;7.78;4.65;;;;;;;;;;5070974;28;20231;-44
2022/08/12 03:31:35;;;;;;;7.63;5.15;;;;;;;;;;5076462;28;20195;-44
2022/08/12 03:34:09;;;;;;;7.38;4.65;;;;;;;;;;5076139;28;20268;-45
2022/08/12 03:36:39;;;;;;;6.22;4.65;;;;;;;;;;5076351;28;20192;-46
2022/08/12 03:41:52;;;;;;;4.32;3.60;;;;;;;;;;5076451;28;20199;-44
2022/08/12 04:01:26;;;;;;;7.15;5.25;;;;;;;;;;5076101;28;20210;-46
2022/08/12 04:03:53;;;;;;;7.70;5.70;;;;;;;;;;5075981;28;20264;-44
2022/08/12 04:06:24;;;;;;;7.20;5.60;;;;;;;;;;5075364;28;20689;-44
2022/08/12 04:09:04;;;;;;;7.78;6.03;;;;;;;;;;5075745;28;20292;-44
2022/08/12 04:14:27;;;;;;;8.32;5.20;;;;;;;;;;5075604;28;20203;-44
2022/08/12 04:16:55;;;;;;;5.78;4.85;;;;;;;;;;5075665;28;20191;-44
2022/08/12 04:19:23;;;;;;;6.53;4.80;;;;;;;;;;5075616;28;20653;-44
2022/08/12 04:21:52;;;;;;;7.68;5.20;;;;;;;;;;5077155;28;20214;-44
2022/08/12 04:24:28;;;;;;;6.85;5.32;;;;;;;;;;5072992;28;20726;-44
2022/08/12 04:26:55;;;;;;;10.30;5.53;;;;;;;;;;5085084;28;20205;-44
2022/08/12 04:29:23;;;;;;;9.35;5.53;;;;;;;;;;5084024;28;20226;-45
2022/08/12 04:32:10;;;;;;;9.15;5.80;;;;;;;;;;5084421;28;20192;-44
2022/08/12 04:34:37;;;;;;;11.13;6.07;;;;;;;;;;5069015;28;20658;-45
2022/08/12 04:37:04;;;;;;;6.35;5.72;;;;;;;;;;5060452;28;20212;-46
2022/08/12 04:39:31;;;;;;;7.45;5.82;;;;;;;;;;5054681;28;20219;-45
2022/08/12 04:41:59;;;;;;;6.43;5.82;;;;;;;;;;5055389;28;20200;-45
2022/08/12 04:44:26;;;;;;;7.63;6.47;;;;;;;;;;5055078;28;20674;-45
2022/08/12 04:46:54;;;;;;;8.90;6.35;;;;;;;;;;5078958;28;20202;-44
2022/08/12 04:49:23;;;;;;;8.25;6.43;;;;;;;;;;5095901;28;20242;-45
2022/08/12 04:51:50;;;;;;;8.55;6.90;;;;;;;;;;5081984;28;20204;-44
2022/08/12 04:54:26;;;;;;;8.25;6.75;;;;;;;;;;5062017;28;20232;-45
2022/08/12 04:56:53;;;;;;;12.23;6.80;;;;;;;;;;5063115;28;20204;-45
2022/08/12 04:59:34;;;;;;;7.95;7.15;;;;;;;;;;5060490;28;20234;-44
2022/08/12 05:02:16;;;;;;;9.27;7.30;;;;;;;;;;5067078;28;20537;-45
2022/08/12 05:04:54;;;;;;;9.93;7.20;;;;;;;;;;5063666;28;20239;-47
2022/08/12 05:07:27;;;;;;;9.75;7.57;;;;;;;;;;5056725;28;20207;-47
2022/08/12 05:09:55;;;;;;;8.32;7.20;;;;;;;;;;5054872;28;20289;-44
2022/08/12 05:12:38;;;;;;;8.60;7.22;;;;;;;;;;5055302;28;20208;-45
2022/08/12 05:15:06;;;;;;;9.25;7.05;;;;;;;;;;5063768;28;20229;-46
2022/08/12 05:17:54;;;;;;;9.25;6.70;;;;;;;;;;5066576;28;20231;-47
2022/08/12 05:20:22;;;;;;;7.50;5.88;;;;;;;;;;5072478;28;20253;-44
2022/08/12 05:22:49;;;;;;;6.95;5.88;;;;;;;;;;5073649;28;20227;-49
2022/08/12 05:25:23;;;;;;;7.28;5.43;;;;;;;;;;5073689;28;20223;-45
2022/08/12 05:27:50;;;;;;;11.27;6.57;;;;;;;;;;5073665;28;20613;-49
2022/08/12 05:30:29;;;;;;;8.52;5.82;;;;;;;;;;5074558;28;20237;-44
2022/08/12 05:32:57;;;;;;;7.35;6.05;;;;;;;;;;5082013;28;20284;-47
2022/08/12 05:35:26;;;;;;;9.63;5.82;;;;;;;;;;5087699;28;20508;-45
2022/08/12 05:38:55;;;;;;;6.38;4.60;;;;;;;;;;5086255;28;20250;-45
2022/08/12 05:40:41;;;;;;;8.13;5.57;;;;;;;;;;5093311;28;20230;-45
2022/08/12 05:43:08;;;;;;;7.25;4.88;;;;;;;;;;5096956;28;20275;-44
2022/08/12 05:45:35;;;;;;;5.40;4.90;;;;;;;;;;5096656;28;20673;-46
2022/08/12 05:48:07;;;;;;;6.95;4.65;;;;;;;;;;5097652;28;20602;-44
2022/08/12 05:50:34;;;;;;;5.15;4.50;;;;;;;;;;5097884;28;20287;-46
2022/08/12 05:53:01;;;;;;;5.85;4.50;;;;;;;;;;5095913;28;20296;-46
2022/08/12 05:55:30;;;;;;;6.18;4.78;;;;;;;;;;5081851;28;20677;-46
2022/08/12 05:57:57;;;;;;;5.78;4.50;;;;;;;;;;5077919;28;20214;-45
2022/08/12 06:00:25;;;;;;;5.20;4.25;;;;;;;;;;5087839;28;20279;-46
2022/08/12 06:02:59;;;;;;;5.28;4.32;;;;;;;;;;5087117;28;20254;-47
2022/08/12 06:05:29;;;;;;;5.55;4.47;;;;;;;;;;5084086;28;20284;-46
2022/08/12 06:07:56;;;;;;;4.82;4.32;;;;;;;;;;5081665;28;20226;-45
2022/08/12 06:10:29;;;;;;;7.43;4.38;;;;;;;;;;5066053;28;20245;-47
2022/08/12 06:13:05;;;;;;;6.00;4.13;;;;;;;;;;5075801;28;20560;-52
2022/08/12 06:15:36;;;;;;;7.90;4.15;;;;;;;;;;5085386;28;20234;-45
2022/08/12 06:18:08;;;;;;;5.55;3.97;;;;;;;;;;5087708;28;20227;-49
2022/08/12 06:20:43;;;;;;;9.07;4.10;;;;;;;;;;5083178;28;20541;-45
2022/08/12 06:23:10;;;;;;;4.90;4.32;;;;;;;;;;5083639;28;20231;-45
2022/08/12 06:25:37;;;;;;;5.13;4.13;;;;;;;;;;5086717;28;20226;-45
2022/08/12 06:28:16;;;;;;;5.75;4.45;;;;;;;;;;5084577;28;20938;-47
2022/08/12 06:30:44;;;;;;;5.72;4.53;;;;;;;;;;5083062;28;20234;-45
2022/08/12 06:33:28;;;;;;;8.60;4.90;;;;;;;;;;5083598;28;20219;-46
2022/08/12 06:36:18;;;;;;;5.18;3.97;;;;;;;;;;5075384;28;20288;-45
2022/08/12 06:38:47;;;;;;;5.05;3.80;;;;;;;;;;5076719;28;20223;-43
2022/08/12 06:44:01;;;;;;;6.80;4.40;;;;;;;;;;5075652;28;20238;-46
2022/08/12 06:46:31;;;;;;;5.60;3.60;;;;;;;;;;5076075;28;20223;-46
2022/08/12 06:48:58;;;;;;;4.45;3.70;;;;;;;;;;5075064;28;20704;-49
2022/08/12 06:51:29;;;;;;;4.68;3.65;;;;;;;;;;5079577;28;20238;-46
2022/08/12 06:53:58;;;;;;;5.50;4.05;;;;;;;;;;5074718;28;20241;-46
2022/08/12 06:56:25;;;;;;;4.03;3.22;;;;;;;;;;5082727;28;20218;-47
2022/08/12 06:59:14;;;;;;;4.80;3.92;;;;;;;;;;5055095;28;20224;-49
2022/08/12 07:01:41;;;;;;;6.82;3.63;;;;;;;;;;5055685;28;20231;-47
2022/08/12 07:04:18;;;;;;;4.13;3.72;;;;;;;;;;5055770;28;20231;-46
2022/08/12 07:07:04;;;;;;;5.35;3.90;;;;;;;;;;5056084;28;20231;-47
2022/08/12 07:09:31;;;;;;;4.30;3.53;;;;;;;;;;5093757;27;20222;-49
2022/08/12 07:12:18;;;;;;;4.85;3.58;;;;;;;;;;5094822;28;20226;-46
2022/08/12 07:14:50;;;;;;;5.25;3.75;;;;;;;;;;5096350;28;20264;-45
2022/08/12 07:17:17;;;;;;;4.47;4.07;;;;;;;;;;5091569;28;20216;-46
2022/08/12 07:19:45;;;;;;;5.22;4.28;;;;;;;;;;5093605;28;20203;-46
2022/08/12 07:22:15;;;;;;;5.80;4.13;;;;;;;;;;5095333;28;20183;-47
2022/08/12 07:25:29;;;;;;;6.47;4.63;;;;;;;;;;5096151;28;20220;-46
2022/08/12 07:27:29;;;;;;;4.55;4.10;;;;;;;;;;5093681;28;20194;-49
2022/08/12 07:29:56;;;;;;;7.10;3.95;;;;;;;;;;5096367;28;20283;-46
2022/08/12 07:32:30;;;;;;;6.47;3.97;;;;;;;;;;5096756;28;20244;-47
2022/08/12 07:34:57;;;;;;;4.72;4.00;;;;;;;;;;5095660;28;20202;-46
2022/08/12 07:37:24;;;;;;;5.97;4.90;;;;;;;;;;5082257;28;20206;-46
2022/08/12 07:39:51;;;;;;;4.53;4.05;;;;;;;;;;5076376;28;20211;-47
2022/08/12 07:42:27;;;;;;;5.30;4.20;;;;;;;;;;5076318;28;20187;-46
2022/08/12 07:44:55;;;;;;;4.43;3.92;;;;;;;;;;5076376;28;20203;-45
2022/08/12 07:47:23;;;;;;;6.50;4.30;;;;;;;;;;5073582;28;20203;-46
2022/08/12 07:49:50;;;;;;;7.00;3.97;;;;;;;;;;5076067;28;20203;-49
2022/08/12 07:52:33;;;;;;;5.13;3.95;;;;;;;;;;5075855;28;20638;-47
2022/08/12 07:55:01;;;;;;;5.30;4.78;;;;;;;;;;5075890;28;20299;-46
2022/08/12 07:57:31;;;;;;;6.85;4.05;;;;;;;;;;5075541;28;20509;-46
2022/08/12 08:00:05;;;;;;;4.95;4.47;;;;;;;;;;5076149;28;20211;-46
2022/08/12 08:02:35;;;;;;;11.48;4.82;;;;;;;;;;5076155;28;20215;-46
2022/08/12 08:05:04;;;;;;;6.25;3.85;;;;;;;;;;5074149;28;20324;-47
2022/08/12 08:07:31;;;;;;;4.78;4.20;;;;;;;;;;5074440;28;20653;-46
2022/08/12 08:09:59;;;;;;;6.78;4.55;;;;;;;;;;5075091;28;20650;-46
2022/08/12 08:15:14;;;;;;;7.65;3.97;;;;;;;;;;5075270;28;20188;-48
2022/08/12 08:18:12;;;;;;;7.45;3.65;;;;;;;;;;5074053;28;20264;-51
2022/08/12 08:20:54;;;;;;;4.53;3.72;;;;;;;;;;5093254;28;20210;-52
2022/08/12 08:24:13;;;;;;;10.82;4.50;;;;;;;;;;5093395;28;20260;-48
2022/08/12 08:26:14;;;;;;;6.00;3.92;;;;;;;;;;5093559;28;20198;-47
2022/08/12 08:28:42;;;;;;;6.32;4.13;;;;;;;;;;5092708;28;20203;-48
2022/08/12 08:31:12;;;;;;;9.57;4.18;;;;;;;;;;5092697;28;20237;-47
2022/08/12 08:33:40;;;;;;;6.03;4.43;;;;;;;;;;5093014;28;20255;-47
2022/08/12 08:36:27;;;;;;;4.78;3.95;;;;;;;;;;5093382;28;20191;-48
2022/08/12 08:38:55;;;;;;;4.80;4.30;;;;;;;;;;5093519;28;20210;-47
2022/08/12 08:44:37;;;;;;;7.18;4.30;;;;;;;;;;5093206;28;20198;-50
2022/08/12 08:47:05;;;;;;;5.43;4.32;;;;;;;;;;5093289;28;20206;-47
2022/08/12 08:49:34;;;;;;;6.03;4.60;;;;;;;;;;5093273;28;20194;-47
2022/08/12 08:52:09;;;;;;;7.28;4.65;;;;;;;;;;5093213;28;20297;-49
2022/08/12 08:54:36;;;;;;;8.00;4.95;;;;;;;;;;5082033;28;20215;-47
2022/08/12 08:57:06;;;;;;;6.57;4.60;;;;;;;;;;5060824;28;20243;-48
2022/08/12 08:59:34;;;;;;;6.28;4.63;;;;;;;;;;5073845;28;20203;-50
2022/08/12 09:02:01;;;;;;;9.20;4.85;;;;;;;;;;5058341;28;20199;-47
2022/08/12 09:04:28;;;;;;;6.03;4.57;;;;;;;;;;5052638;28;20505;-48
2022/08/12 09:07:17;;;;;;;5.72;4.53;;;;;;;;;;5051283;28;20188;-53
2022/08/12 09:10:05;;;;;;;6.53;4.90;;;;;;;;;;5053945;28;20192;-48
2022/08/12 09:15:51;;;;;;;11.02;4.95;;;;;;;;;;5054371;28;20197;-47
2022/08/12 09:18:38;;;;;;;7.07;5.15;;;;;;;;;;5071538;28;20249;-49
2022/08/12 09:21:08;;;;;;;12.05;5.13;;;;;;;;;;5074591;28;20218;-48
2022/08/12 09:23:35;;;;;;;5.70;4.55;;;;;;;;;;5074405;28;20219;-49
2022/08/12 09:26:24;;;;;;;7.30;5.47;;;;;;;;;;5074346;28;20261;-50
2022/08/12 09:28:56;;;;;;;7.50;4.95;;;;;;;;;;5073976;28;20188;-48
2022/08/12 09:31:23;;;;;;;8.13;5.60;;;;;;;;;;5074310;28;20230;-48
2022/08/12 09:34:11;;;;;;;6.32;4.60;;;;;;;;;;5074245;28;20187;-49
2022/08/12 09:36:55;;;;;;;6.63;5.68;;;;;;;;;;5073935;28;20553;-48
2022/08/12 09:39:31;;;;;;;8.73;5.07;;;;;;;;;;5074317;28;20195;-48
2022/08/12 09:45:21;;;;;;;6.05;5.38;;;;;;;;;;5079159;28;20206;-47
2022/08/12 09:47:52;;;;;;;7.85;5.30;;;;;;;;;;5073650;28;20210;-46
2022/08/12 09:50:26;;;;;;;7.78;5.15;;;;;;;;;;5073509;28;20375;-48
2022/08/12 09:53:04;;;;;;;6.03;5.20;;;;;;;;;;5074349;28;20669;-45
2022/08/12 09:55:32;;;;;;;6.82;4.70;;;;;;;;;;5074512;28;20203;-47
2022/08/12 09:58:28;;;;;;;8.82;5.47;;;;;;;;;;5074561;28;20183;-47
2022/08/12 10:01:17;;;;;;;7.25;5.07;;;;;;;;;;5074060;28;20239;-47
2022/08/12 10:03:49;;;;;;;11.63;5.57;;;;;;;;;;5074173;28;20214;-47
2022/08/12 10:06:30;;;;;;;8.00;5.32;;;;;;;;;;5069779;28;20241;-47
2022/08/12 10:09:05;;;;;;;10.48;5.63;;;;;;;;;;5074524;28;20215;-48
2022/08/12 10:14:36;;;;;;;7.55;5.57;;;;;;;;;;5074038;28;20233;-46
2022/08/12 10:17:05;;;;;;;6.65;5.72;;;;;;;;;;5074289;28;20222;-50
2022/08/12 10:19:36;;;;;;;6.15;5.40;;;;;;;;;;5075299;28;20276;-47
2022/08/12 10:22:04;;;;;;;7.43;5.63;;;;;;;;;;5077935;28;20203;-48
2022/08/12 10:29:35;;;;;;;9.68;6.20;;;;;;;;;;5077939;28;20207;-47
2022/08/12 10:30:35;;;;;;;10.05;6.25;;;;;;;;;;5077965;28;20227;-46
2022/08/12 10:33:08;;;;;;;9.57;6.13;;;;;;;;;;5077787;28;20511;-47
2022/08/12 10:35:45;;;;;;;7.43;6.10;;;;;;;;;;5078036;28;20195;-45
2022/08/12 10:38:14;;;;;;;9.05;6.15;;;;;;;;;;5077755;28;20210;-46
2022/08/12 10:43:48;;;;;;;11.00;5.75;;;;;;;;;;5077366;28;20265;-47
2022/08/12 10:46:23;;;;;;;7.40;5.80;;;;;;;;;;5078140;28;20203;-46
2022/08/12 10:48:58;;;;;;;7.00;5.93;;;;;;;;;;5077519;28;20214;-49
2022/08/12 10:51:48;;;;;;;7.03;5.53;;;;;;;;;;5077321;28;20230;-45
2022/08/12 10:54:35;;;;;;;8.77;6.80;;;;;;;;;;5073979;28;20234;-46
2022/08/12 10:57:03;;;;;;;8.95;5.88;;;;;;;;;;5074952;28;20241;-50
2022/08/12 10:59:32;;;;;;;8.77;6.30;;;;;;;;;;5070445;28;20223;-54
2022/08/12 11:02:19;;;;;;;8.15;5.93;;;;;;;;;;5078599;28;20226;-51
2022/08/12 11:05:06;;;;;;;9.98;5.90;;;;;;;;;;5076221;28;20242;-49
2022/08/12 11:07:54;;;;;;;6.97;5.95;;;;;;;;;;5074352;28;20231;-49
2022/08/12 11:10:41;;;;;;;10.65;5.90;;;;;;;;;;5075443;28;20223;-49
2022/08/12 11:13:11;;;;;;;11.75;6.10;;;;;;;;;;5076117;28;20230;-47
2022/08/12 11:15:38;;;;;;;8.13;6.13;;;;;;;;;;5075821;28;20219;-48
2022/08/12 11:18:26;;;;;;;9.40;6.20;;;;;;;;;;5076081;28;20235;-49
2022/08/12 11:20:53;;;;;;;10.07;6.53;;;;;;;;;;5075888;28;20230;-47
2022/08/12 11:23:24;;;;;;;8.50;6.53;;;;;;;;;;5075368;28;20266;-47
2022/08/12 11:26:05;;;;;;;10.98;6.80;;;;;;;;;;5075747;28;20233;-51
2022/08/12 11:28:34;;;;;;;8.98;6.22;;;;;;;;;;5075790;28;20227;-48
2022/08/12 11:31:06;;;;;;;10.13;7.18;;;;;;;;;;5074406;28;20660;-49
2022/08/12 11:33:42;;;;;;;9.27;5.85;;;;;;;;;;5075812;28;20296;-48
2022/08/12 11:36:29;;;;;;;7.15;6.10;;;;;;;;;;5075811;28;20250;-48
2022/08/12 11:38:56;;;;;;;9.63;6.07;;;;;;;;;;5074936;28;20270;-49
2022/08/12 11:41:23;;;;;;;10.27;9.00;;;;;;;;;;5075322;28;20239;-48
2022/08/12 11:44:01;;;;;;;9.80;7.90;;;;;;;;;;5075510;28;20549;-47
2022/08/12 11:46:50;;;;;;;7.35;6.65;;;;;;;;;;5075467;28;20281;-49
2022/08/12 11:49:21;;;;;;;9.45;6.43;;;;;;;;;;5075429;28;20231;-47
2022/08/12 11:52:02;;;;;;;10.45;6.53;;;;;;;;;;5074934;28;20234;-46
2022/08/12 11:54:30;;;;;;;8.85;7.05;;;;;;;;;;5075023;28;20227;-47
2022/08/12 11:57:00;;;;;;;9.85;7.22;;;;;;;;;;5074795;28;20227;-47
2022/08/12 11:59:32;;;;;;;11.15;6.65;;;;;;;;;;5069864;28;20235;-47
2022/08/12 12:02:19;;;;;;;9.88;7.18;;;;;;;;;;5074825;28;20239;-46
2022/08/12 12:04:48;;;;;;;9.77;6.93;;;;;;;;;;5075428;28;20238;-46
2022/08/12 12:07:22;;;;;;;9.95;6.63;;;;;;;;;;5075743;28;20227;-47
2022/08/12 12:10:15;;;;;;;10.95;7.43;;;;;;;;;;5075819;28;20187;-48
2022/08/12 12:12:42;;;;;;;16.80;7.88;;;;;;;;;;5074545;28;20215;-49
2022/08/12 12:15:17;;;;;;;9.88;7.18;;;;;;;;;;5075446;28;20184;-47
2022/08/12 12:18:03;;;;;;;8.93;7.00;;;;;;;;;;5075599;28;20183;-46
2022/08/12 12:20:30;;;;;;;9.20;7.07;;;;;;;;;;5075352;28;20635;-47
2022/08/12 12:22:57;;;;;;;9.55;6.90;;;;;;;;;;5074262;28;20238;-49
2022/08/12 12:25:24;;;;;;;7.50;6.68;;;;;;;;;;5075208;28;20217;-47
2022/08/12 12:28:12;;;;;;;10.68;6.88;;;;;;;;;;5074149;28;20248;-52
2022/08/12 12:31:00;;;;;;;8.05;7.20;;;;;;;;;;5074075;28;20198;-50
2022/08/12 12:33:30;;;;;;;9.85;8.23;;;;;;;;;;5069048;28;20658;-50
2022/08/12 12:36:17;;;;;;;14.13;9.02;;;;;;;;;;5074000;28;20374;-48
2022/08/12 12:38:52;;;;;;;9.48;7.82;;;;;;;;;;5074038;28;20568;-47
2022/08/12 12:41:20;;;;;;;11.10;7.53;;;;;;;;;;5073234;28;20293;-48
2022/08/12 12:44:07;;;;;;;9.88;7.20;;;;;;;;;;5072976;28;20685;-47
2022/08/12 12:46:39;;;;;;;11.90;7.47;;;;;;;;;;5074126;28;20241;-46
2022/08/12 12:49:10;;;;;;;12.18;7.18;;;;;;;;;;5072976;28;20227;-46
2022/08/12 12:51:41;;;;;;;12.15;7.72;;;;;;;;;;5074440;28;20342;-47
2022/08/12 12:54:28;;;;;;;9.60;7.40;;;;;;;;;;5074142;28;20223;-47
2022/08/12 12:56:55;;;;;;;8.80;6.82;;;;;;;;;;5073515;28;20227;-47
2022/08/12 12:59:23;;;;;;;8.68;7.65;;;;;;;;;;5073920;28;20339;-46
2022/08/12 13:02:10;;;;;;;8.48;7.07;;;;;;;;;;5072979;28;20285;-47
2022/08/12 13:04:38;;;;;;;10.13;7.55;;;;;;;;;;5073432;28;20239;-47
2022/08/12 13:07:05;;;;;;;8.90;7.75;;;;;;;;;;5072607;28;20538;-47
2022/08/12 13:09:33;;;;;;;11.73;7.90;;;;;;;;;;5073762;28;20522;-48
2022/08/12 13:12:05;;;;;;;9.38;7.60;;;;;;;;;;5073520;28;20299;-49
2022/08/12 13:14:34;;;;;;;12.23;8.57;;;;;;;;;;5073727;28;20223;-48
2022/08/12 13:17:08;;;;;;;10.70;8.25;;;;;;;;;;5070626;28;20296;-47
2022/08/12 13:19:37;;;;;;;10.65;9.00;;;;;;;;;;5073767;28;20235;-47
2022/08/12 13:22:17;;;;;;;11.25;9.43;;;;;;;;;;5073517;28;20229;-48
2022/08/12 13:24:47;;;;;;;15.50;9.57;;;;;;;;;;5073597;28;20238;-48
2022/08/12 13:27:32;;;;;;;14.35;10.18;;;;;;;;;;5073794;28;20223;-48
2022/08/12 13:30:11;;;;;;;11.63;9.25;;;;;;;;;;5073681;28;20237;-48
2022/08/12 13:32:44;;;;;;;13.18;10.70;;;;;;;;;;5073379;28;20250;-48
2022/08/12 13:35:25;;;;;;;11.90;9.75;;;;;;;;;;5073657;28;20270;-48
2022/08/12 13:38:00;;;;;;;12.13;9.77;;;;;;;;;;5073917;28;20233;-50
2022/08/12 13:40:32;;;;;;;15.90;10.30;;;;;;;;;;5073465;28;20250;-47
2022/08/12 13:43:00;;;;;;;14.93;10.25;;;;;;;;;;5073373;28;20223;-50
2022/08/12 13:45:29;;;;;;;13.02;9.52;;;;;;;;;;5073478;28;20285;-49
2022/08/12 13:48:02;;;;;;;13.82;10.23;;;;;;;;;;5072936;28;20223;-46
2022/08/12 13:50:35;;;;;;;12.48;9.95;;;;;;;;;;5073752;28;20314;-50
2022/08/12 13:53:12;;;;;;;16.73;9.23;;;;;;;;;;5074385;28;20278;-47
2022/08/12 13:55:52;;;;;;;15.65;10.80;;;;;;;;;;5076632;28;20219;-46
2022/08/12 13:58:28;;;;;;;13.95;9.70;;;;;;;;;;5078709;28;20202;-47
2022/08/12 14:00:57;;;;;;;11.45;9.63;;;;;;;;;;5071998;28;20202;-48
2022/08/12 14:03:25;;;;;;;12.85;9.50;;;;;;;;;;5077139;28;20288;-47
2022/08/12 14:06:12;;;;;;;12.02;9.85;;;;;;;;;;5054006;28;20236;-47
2022/08/12 14:08:42;;;;;;;11.55;8.98;;;;;;;;;;5057024;28;20561;-48
2022/08/12 14:11:09;;;;;;;11.23;9.50;;;;;;;;;;5056964;28;20227;-49
2022/08/12 14:13:40;;;;;;;12.77;9.63;;;;;;;;;;5064714;28;20219;-48
2022/08/12 14:16:28;;;;;;;15.75;10.00;;;;;;;;;;5076236;28;20224;-47
2022/08/12 14:19:15;;;;;;;17.58;9.95;;;;;;;;;;5076750;28;20561;-48
2022/08/12 14:21:52;;;;;;;14.43;10.40;;;;;;;;;;5076771;28;20291;-47
2022/08/12 14:24:33;;;;;;;12.88;10.77;;;;;;;;;;5076945;28;20227;-47
2022/08/12 14:27:03;;;;;;;17.45;11.60;;;;;;;;;;5076526;28;21184;-48
2022/08/12 14:29:40;;;;;;;12.20;10.98;;;;;;;;;;5076854;28;20673;-46
2022/08/12 14:32:33;;;;;;;15.80;12.27;;;;;;;;;;5076359;28;20239;-48
2022/08/12 14:35:05;;;;;;;14.13;11.63;;;;;;;;;;5076495;28;21023;-47
2022/08/12 14:37:39;;;;;;;15.90;12.13;;;;;;;;;;5076933;28;20308;-48
2022/08/12 14:40:28;;;;;;;14.82;11.23;;;;;;;;;;5077027;28;20235;-47
2022/08/12 14:42:57;;;;;;;13.27;10.68;;;;;;;;;;5076371;28;20222;-46
2022/08/12 14:45:25;;;;;;;13.32;10.70;;;;;;;;;;5076442;28;20300;-47
2022/08/12 14:48:13;;;;;;;12.50;9.90;;;;;;;;;;5056476;28;20562;-48
2022/08/12 14:50:42;;;;;;;14.10;11.02;;;;;;;;;;5057458;28;20204;-48
2022/08/12 14:53:30;;;;;;;14.10;10.93;;;;;;;;;;5057390;28;20212;-47
2022/08/12 14:56:19;;;;;;;14.20;11.55;;;;;;;;;;5056136;28;20646;-48
2022/08/12 15:02:19;;;;;;;14.05;11.45;;;;;;;;;;5060448;28;20306;-49
2022/08/12 15:04:54;;;;;;;17.23;12.02;;;;;;;;;;5075790;28;20243;-47
2022/08/12 15:07:22;;;;;;;15.75;12.30;;;;;;;;;;5076077;28;20692;-46
2022/08/12 15:10:09;;;;;;;14.57;12.35;;;;;;;;;;5075997;28;20223;-49
2022/08/12 15:12:38;;;;;;;17.30;12.98;;;;;;;;;;5076282;28;20243;-50
2022/08/12 15:15:07;;;;;;;18.05;13.23;;;;;;;;;;5074434;28;20255;-47
2022/08/12 15:17:37;;;;;;;17.35;13.02;;;;;;;;;;5076258;28;20223;-47
2022/08/12 15:20:06;;;;;;;20.90;14.25;;;;;;;;;;5090750;28;20227;-48
2022/08/12 15:22:54;;;;;;;19.35;14.48;;;;;;;;;;5075775;28;20235;-48
2022/08/12 15:25:21;;;;;;;15.85;13.15;;;;;;;;;;5075659;28;20219;-47
2022/08/12 15:27:51;;;;;;;19.75;14.65;;;;;;;;;;5075757;28;20746;-47
2022/08/12 15:30:39;;;;;;;19.25;14.90;;;;;;;;;;5054642;28;20278;-47
2022/08/12 15:33:10;;;;;;;18.30;13.95;;;;;;;;;;5087806;28;20258;-47
2022/08/12 15:35:45;;;;;;;16.90;13.48;;;;;;;;;;5055613;28;20227;-50
2022/08/12 15:38:20;;;;;;;19.75;13.85;;;;;;;;;;5055803;28;20227;-48
2022/08/12 15:40:51;;;;;;;20.85;14.77;;;;;;;;;;5074071;28;20279;-47
2022/08/12 15:43:18;;;;;;;18.70;14.05;;;;;;;;;;5075078;28;20231;-48
2022/08/12 15:46:07;;;;;;;20.35;16.33;;;;;;;;;;5075023;28;20293;-47
2022/08/12 15:48:43;;;;;;;21.00;15.98;;;;;;;;;;5075573;28;20222;-47
2022/08/12 15:51:39;;;;;;;21.25;15.85;;;;;;;;;;5070041;28;20538;-48
2022/08/12 15:54:26;;;;;;;18.08;15.70;;;;;;;;;;5074675;28;20219;-50
2022/08/12 15:57:05;;;;;;;20.33;15.73;;;;;;;;;;5074512;28;20324;-49
2022/08/12 15:59:37;;;;;;;18.50;15.52;;;;;;;;;;5075066;28;20245;-48
2022/08/12 16:02:25;;;;;;;20.92;15.80;;;;;;;;;;5054213;28;20262;-49
2022/08/12 16:04:56;;;;;;;23.88;16.55;;;;;;;;;;5054608;28;20267;-47
2022/08/12 16:07:24;;;;;;;19.83;15.80;;;;;;;;;;5054815;28;20318;-47
2022/08/12 16:09:57;;;;;;;18.08;15.25;;;;;;;;;;5055080;28;20224;-44
2022/08/12 16:12:41;;;;;;;22.10;14.13;;;;;;;;;;5054877;28;20243;-45
2022/08/12 16:15:23;;;;;;;18.02;14.70;;;;;;;;;;5067638;28;20234;-44
2022/08/12 16:17:53;;;;;;;17.13;13.77;;;;;;;;;;5073931;28;20238;-46
2022/08/12 16:20:41;;;;;;;17.27;14.00;;;;;;;;;;5075087;28;20246;-44
2022/08/12 16:23:14;;;;;;;18.83;14.93;;;;;;;;;;5074562;28;20230;-45
2022/08/12 16:26:03;;;;;;;19.33;15.00;;;;;;;;;;5074604;28;20289;-45
2022/08/12 16:28:41;;;;;;;22.92;15.20;;;;;;;;;;5074281;28;20241;-46
2022/08/12 16:31:09;;;;;;;24.95;15.95;;;;;;;;;;5074370;28;20292;-45
2022/08/12 16:33:41;;;;;;;18.20;14.77;;;;;;;;;;5074528;28;20337;-45
2022/08/12 16:36:29;;;;;;;18.05;15.23;;;;;;;;;;5074462;28;20235;-45
2022/08/12 16:38:57;;;;;;;17.05;14.68;;;;;;;;;;5074041;28;20255;-46
2022/08/12 16:41:29;;;;;;;20.88;15.38;;;;;;;;;;5074764;28;20223;-47
2022/08/12 16:44:05;;;;;;;17.60;13.80;;;;;;;;;;5073520;28;20259;-47
2022/08/12 16:46:35;;;;;;;17.42;13.70;;;;;;;;;;5069428;28;20220;-45
2022/08/12 16:49:04;;;;;;;17.80;14.00;;;;;;;;;;5073727;28;20709;-46
2022/08/12 16:51:42;;;;;;;15.25;13.55;;;;;;;;;;5073034;28;20288;-47
2022/08/12 16:54:14;;;;;;;18.98;13.75;;;;;;;;;;5091372;27;20241;-47
2022/08/12 16:56:44;;;;;;;21.60;14.88;;;;;;;;;;5083103;28;20301;-52
2022/08/12 16:59:25;;;;;;;15.60;13.20;;;;;;;;;;5072459;28;20250;-49
2022/08/12 17:02:12;;;;;;;19.58;15.82;;;;;;;;;;5074977;28;20191;-47
2022/08/12 17:04:59;;;;;;;19.13;15.93;;;;;;;;;;5072865;28;20242;-46
2022/08/12 17:07:31;;;;;;;19.85;15.75;;;;;;;;;;5075126;28;20207;-47